createdAt,value
2018-11-04T00:04:58.178Z,8.1
2018-11-04T00:10:00.615Z,8.1
2018-11-04T00:15:03.069Z,8.2
2018-11-04T00:20:05.498Z,8.2
2018-11-04T00:25:07.947Z,8.2
2018-11-04T00:30:10.382Z,8.2
2018-11-04T00:35:12.828Z,8.2
2018-11-04T00:40:15.245Z,8.2
2018-11-04T00:45:17.747Z,8.2
2018-11-04T00:50:20.143Z,8.2
2018-11-04T00:55:22.576Z,8.2
2018-11-04T01:00:25.037Z,8.2
2018-11-04T01:05:27.449Z,8.2
2018-11-04T01:10:29.986Z,8.2
2018-11-04T01:15:32.319Z,8.3
2018-11-04T01:20:34.757Z,8.3
2018-11-04T01:25:37.225Z,8.3
2018-11-04T01:30:39.655Z,8.3
2018-11-04T01:35:42.091Z,8.3
2018-11-04T01:40:44.541Z,8.2
2018-11-04T01:45:46.991Z,8.3
2018-11-04T01:50:49.410Z,8.3
2018-11-04T01:55:51.884Z,8.2
2018-11-04T02:00:54.315Z,8.3
2018-11-04T02:05:56.735Z,8.2
2018-11-04T02:10:59.182Z,8.2
2018-11-04T02:16:01.627Z,8.2
2018-11-04T02:26:06.505Z,8.2
2018-11-04T02:31:08.942Z,8.2
2018-11-04T02:36:11.379Z,8.2
2018-11-04T02:41:13.883Z,8.2
2018-11-04T02:46:16.247Z,8.2
2018-11-04T02:51:18.707Z,8.2
2018-11-04T02:56:21.162Z,8.2
2018-11-04T03:01:23.577Z,8.2
2018-11-04T03:06:26.031Z,8.2
2018-11-04T03:11:28.489Z,8.2
2018-11-04T03:16:30.996Z,8.2
2018-11-04T03:21:33.340Z,8.2
2018-11-04T03:26:35.788Z,8.2
2018-11-04T03:31:38.210Z,8.3
2018-11-04T03:36:40.650Z,8.3
2018-11-04T03:41:43.095Z,8.3
2018-11-04T03:46:45.526Z,8.2
2018-11-04T03:51:47.968Z,8.3
2018-11-04T04:01:52.885Z,8.3
2018-11-04T04:06:55.305Z,8.3
2018-11-04T04:11:57.746Z,8.3
2018-11-04T04:17:00.170Z,8.3
2018-11-04T04:22:02.602Z,8.3
2018-11-04T04:27:05.126Z,8.3
2018-11-04T04:32:07.496Z,8.3
2018-11-04T04:37:09.930Z,8.3
2018-11-04T04:42:12.383Z,8.3
2018-11-04T04:47:14.903Z,8.2
2018-11-04T04:52:17.244Z,8.2
2018-11-04T04:57:19.703Z,8.2
2018-11-04T05:02:22.176Z,8.2
2018-11-04T05:07:24.581Z,8.2
2018-11-04T05:12:27.009Z,8.2
2018-11-04T05:17:29.480Z,8.2
2018-11-04T05:22:31.906Z,8.2
2018-11-04T05:27:34.347Z,8.3
2018-11-04T05:32:36.871Z,8.2
2018-11-04T05:37:39.334Z,8.2
2018-11-04T05:42:41.651Z,8.3
2018-11-04T05:47:44.085Z,8.3
2018-11-04T05:52:46.543Z,8.3
2018-11-04T05:57:49.019Z,8.3
2018-11-04T06:02:51.411Z,8.3
2018-11-04T06:07:53.839Z,8.3
2018-11-04T06:12:56.283Z,8.3
2018-11-04T06:17:58.733Z,8.3
2018-11-04T06:23:01.174Z,8.3
2018-11-04T06:28:03.606Z,8.4
2018-11-04T06:33:06.050Z,8.4
2018-11-04T06:38:08.490Z,8.4
2018-11-04T06:43:10.933Z,8.4
2018-11-04T06:48:13.371Z,8.5
2018-11-04T06:53:15.839Z,8.5
2018-11-04T06:58:18.254Z,8.5
2018-11-04T07:03:20.729Z,8.5
2018-11-04T07:08:23.132Z,8.6
2018-11-04T07:13:25.604Z,8.6
2018-11-04T07:18:28.021Z,8.7
2018-11-04T07:23:30.460Z,8.7
2018-11-04T07:28:32.918Z,8.7
2018-11-04T07:33:35.349Z,8.8
2018-11-04T07:38:37.790Z,8.8
2018-11-04T07:43:40.206Z,8.8
2018-11-04T07:48:42.677Z,8.8
2018-11-04T07:53:45.082Z,8.9
2018-11-04T07:58:47.531Z,8.9
2018-11-04T08:03:49.972Z,9
2018-11-04T08:08:52.423Z,9.1
2018-11-04T08:13:54.854Z,9.2
2018-11-04T08:18:57.307Z,9.2
2018-11-04T08:23:59.769Z,9.3
2018-11-04T08:29:02.195Z,9.4
2018-11-04T08:34:04.614Z,9.5
2018-11-04T08:39:07.062Z,9.6
2018-11-04T08:44:09.500Z,9.7
2018-11-04T08:49:11.948Z,9.8
2018-11-04T08:54:14.374Z,9.9
2018-11-04T08:59:16.814Z,10
2018-11-04T09:04:19.253Z,10
2018-11-04T09:09:21.705Z,10.1
2018-11-04T09:14:24.236Z,10.1
2018-11-04T09:19:26.573Z,10.1
2018-11-04T09:24:29.032Z,10.1
2018-11-04T09:29:31.452Z,10.2
2018-11-04T09:34:33.935Z,10.3
2018-11-04T09:39:36.333Z,10.3
2018-11-04T09:44:38.781Z,10.4
2018-11-04T09:49:41.225Z,10.5
2018-11-04T09:54:43.701Z,10.6
2018-11-04T09:59:46.258Z,10.6
2018-11-04T10:04:48.527Z,10.7
2018-11-04T10:09:50.978Z,10.7
2018-11-04T10:14:53.418Z,10.8
2018-11-04T10:19:56.172Z,10.8
2018-11-04T10:24:58.325Z,10.9
2018-11-04T10:30:00.815Z,10.9
2018-11-04T10:35:03.202Z,10.9
2018-11-04T10:40:05.663Z,10.9
2018-11-04T10:45:08.062Z,10.9
2018-11-04T10:50:10.497Z,10.9
2018-11-04T10:55:12.971Z,10.9
2018-11-04T11:00:15.465Z,10.9
2018-11-04T11:05:17.812Z,11
2018-11-04T11:10:20.278Z,11.1
2018-11-04T11:15:22.699Z,11.2
2018-11-04T11:20:25.137Z,11.2
2018-11-04T11:25:27.609Z,11.3
2018-11-04T11:30:30.029Z,11.4
2018-11-04T11:35:32.456Z,11.5
2018-11-04T11:40:34.942Z,11.6
2018-11-04T11:45:37.339Z,11.6
2018-11-04T11:50:39.777Z,11.6
2018-11-04T11:55:42.250Z,11.6
2018-11-04T12:00:44.700Z,11.7
2018-11-04T12:05:47.095Z,11.7
2018-11-04T12:10:49.547Z,11.8
2018-11-04T12:15:51.983Z,12
2018-11-04T12:20:54.417Z,12
2018-11-04T12:25:56.859Z,11.9
2018-11-04T12:30:59.296Z,11.8
2018-11-04T12:36:01.760Z,11.8
2018-11-04T12:41:04.177Z,11.7
2018-11-04T12:46:06.672Z,11.7
2018-11-04T12:51:09.059Z,11.6
2018-11-04T12:56:11.515Z,11.6
2018-11-04T13:01:13.947Z,11.5
2018-11-04T13:06:16.386Z,11.5
2018-11-04T13:11:18.903Z,11.5
2018-11-04T13:16:21.254Z,11.4
2018-11-04T13:26:26.159Z,11.4
2018-11-04T13:31:28.664Z,11.4
2018-11-04T13:36:31.055Z,11.3
2018-11-04T13:41:33.470Z,11.2
2018-11-04T13:46:35.907Z,11.2
2018-11-04T13:51:38.344Z,11.1
2018-11-04T13:56:40.790Z,11
2018-11-04T14:01:43.229Z,11
2018-11-04T14:06:45.673Z,11
2018-11-04T14:11:48.106Z,10.9
2018-11-04T14:16:50.587Z,10.9
2018-11-04T14:21:53.007Z,10.8
2018-11-04T14:26:55.429Z,10.8
2018-11-04T14:31:57.875Z,10.8
2018-11-04T14:37:00.316Z,10.7
2018-11-04T14:42:02.792Z,10.6
2018-11-04T14:47:05.189Z,10.5
2018-11-04T14:52:07.619Z,10.5
2018-11-04T14:57:10.082Z,10.5
2018-11-04T15:02:12.511Z,10.5
2018-11-04T15:07:14.987Z,10.4
2018-11-04T15:12:17.398Z,10.4
2018-11-04T15:17:19.844Z,10.4
2018-11-04T15:22:22.282Z,10.4
2018-11-04T15:27:24.710Z,10.3
2018-11-04T15:32:27.168Z,10.3
2018-11-04T15:37:29.640Z,10.3
2018-11-04T15:42:32.036Z,10.3
2018-11-04T15:47:34.471Z,10.2
2018-11-04T15:52:36.908Z,10.2
2018-11-04T15:57:39.354Z,10.2
2018-11-04T16:02:41.901Z,10.2
2018-11-04T16:07:44.234Z,10.1
2018-11-04T16:12:46.667Z,10.1
2018-11-04T16:17:49.119Z,10.1
2018-11-04T16:22:51.554Z,10
2018-11-04T16:27:53.984Z,10
2018-11-04T16:32:56.447Z,9.9
2018-11-04T16:37:58.986Z,9.8
2018-11-04T16:43:01.331Z,9.8
2018-11-04T16:48:03.750Z,9.7
2018-11-04T16:53:06.198Z,9.7
2018-11-04T16:58:08.634Z,9.8
2018-11-04T17:03:11.071Z,9.8
2018-11-04T17:08:13.534Z,9.8
2018-11-04T17:13:15.995Z,9.9
2018-11-04T17:18:18.453Z,9.9
2018-11-04T17:23:20.835Z,9.8
2018-11-04T17:28:23.272Z,9.9
2018-11-04T17:33:25.717Z,9.9
2018-11-04T17:38:28.209Z,9.9
2018-11-04T17:43:30.583Z,9.9
2018-11-04T17:48:33.033Z,10
2018-11-04T17:53:35.572Z,10
2018-11-04T17:58:37.923Z,10
2018-11-04T18:03:40.349Z,10
2018-11-04T18:08:42.793Z,10.1
2018-11-04T18:13:45.363Z,10.1
2018-11-04T18:18:47.671Z,10.1
2018-11-04T18:23:50.123Z,10.1
2018-11-04T18:28:52.550Z,10.1
2018-11-04T18:33:54.987Z,10.1
2018-11-04T18:38:57.438Z,10.2
2018-11-04T18:44:00.035Z,10.2
2018-11-04T18:49:02.323Z,10.2
2018-11-04T18:54:04.778Z,10.2
2018-11-04T18:59:07.287Z,10.2
2018-11-04T19:04:09.630Z,10.2
2018-11-04T19:09:12.096Z,10.2
2018-11-04T19:14:14.583Z,10.2
2018-11-04T19:19:16.976Z,10.2
2018-11-04T19:24:19.396Z,10.2
2018-11-04T19:29:21.853Z,10.3
2018-11-04T19:34:24.272Z,10.3
2018-11-04T19:39:26.715Z,10.4
2018-11-04T19:44:29.151Z,10.4
2018-11-04T19:49:31.592Z,10.4
2018-11-04T19:54:34.034Z,10.4
2018-11-04T19:59:36.517Z,10.4
2018-11-04T20:04:38.975Z,10.4
2018-11-04T20:09:41.383Z,10.5
2018-11-04T20:14:43.790Z,10.5
2018-11-04T20:19:46.335Z,10.5
2018-11-04T20:24:48.680Z,10.5
2018-11-04T20:29:51.130Z,10.5
2018-11-04T20:34:53.562Z,10.6
2018-11-04T20:39:55.997Z,10.6
2018-11-04T20:44:58.539Z,10.6
2018-11-04T20:50:00.891Z,10.6
2018-11-04T20:55:03.334Z,10.6
2018-11-04T21:00:05.937Z,10.6
2018-11-04T21:05:08.212Z,10.6
2018-11-04T21:10:10.651Z,10.6
2018-11-04T21:15:13.090Z,10.6
2018-11-04T21:20:15.525Z,10.7
2018-11-04T21:25:18.011Z,10.7
2018-11-04T21:30:20.408Z,10.8
2018-11-04T21:35:22.942Z,10.8
2018-11-04T21:40:25.323Z,10.8
2018-11-04T21:45:27.724Z,10.8
2018-11-04T21:50:30.159Z,10.8
2018-11-04T21:55:32.857Z,10.8
2018-11-04T22:00:35.066Z,10.8
2018-11-04T22:05:37.497Z,10.8
2018-11-04T22:10:40.112Z,10.8
2018-11-04T22:15:42.361Z,10.8
2018-11-04T22:20:44.833Z,10.8
2018-11-04T22:25:47.253Z,10.8
2018-11-04T22:30:49.684Z,10.8
2018-11-04T22:35:52.132Z,10.7
2018-11-04T22:40:54.574Z,10.7
2018-11-04T22:45:57.006Z,10.6
2018-11-04T22:50:59.462Z,10.6
2018-11-04T22:56:02.079Z,10.6
2018-11-04T23:01:04.325Z,10.6
2018-11-04T23:06:06.787Z,10.6
2018-11-04T23:11:09.217Z,10.6
2018-11-04T23:16:11.676Z,10.6
2018-11-04T23:21:14.109Z,10.5
2018-11-04T23:26:16.531Z,10.5
2018-11-04T23:31:18.962Z,10.4
2018-11-04T23:36:21.406Z,10.3
2018-11-04T23:41:23.848Z,10.2
2018-11-04T23:46:26.288Z,10.2
2018-11-04T23:51:29.118Z,10.1
2018-11-04T23:56:31.157Z,10.1
